createdAt,value
2019-01-28T00:03:21.455Z,98337.80
2019-01-28T00:08:43.634Z,98042.38
2019-01-28T00:13:58.742Z,98345.35
2019-01-28T00:19:20.926Z,98345.69
2019-01-28T00:24:43.111Z,98097.12
2019-01-28T00:29:45.789Z,98343.14
2019-01-28T00:35:07.963Z,98332.31
2019-01-28T00:40:30.153Z,98352.91
2019-01-28T00:45:52.321Z,98149.53
2019-01-28T00:51:14.506Z,98339.70
2019-01-28T00:56:36.682Z,98343.73
2019-01-28T01:01:39.365Z,98341.23
2019-01-28T01:06:42.047Z,98320.68
2019-01-28T01:11:57.039Z,98315.78
2019-01-28T01:17:19.210Z,98324.07
2019-01-28T01:22:41.385Z,98315.30
2019-01-28T01:27:44.065Z,98310.14
2019-01-28T01:33:06.233Z,98324.77
2019-01-28T01:38:08.916Z,98321.02
2019-01-28T01:43:31.099Z,98321.36
2019-01-28T01:48:53.286Z,98331.60
2019-01-28T01:53:55.949Z,98338.20
2019-01-28T01:59:18.135Z,98315.78
2019-01-28T02:04:40.309Z,98309.12
2019-01-28T02:09:55.909Z,98299.45
2019-01-28T02:21:08.366Z,98297.00
2019-01-28T02:26:30.555Z,98306.98
2019-01-28T02:31:52.772Z,98291.80
2019-01-28T02:37:15.003Z,98268.39
2019-01-28T02:42:17.685Z,98273.00
2019-01-28T02:47:39.858Z,98259.12
2019-01-28T02:53:02.034Z,97829.11
2019-01-28T02:58:05.024Z,98277.44
2019-01-28T03:03:27.211Z,98259.44
2019-01-28T03:08:29.921Z,98260.12
2019-01-28T03:13:45.196Z,98250.98
2019-01-28T03:19:08.195Z,98281.74
2019-01-28T03:24:23.525Z,98248.79
2019-01-28T03:29:45.700Z,97877.23
2019-01-28T03:34:48.369Z,98241.58
2019-01-28T03:40:34.486Z,98242.97
2019-01-28T03:45:56.664Z,98242.55
2019-01-28T03:50:59.332Z,98248.44
2019-01-28T03:56:21.495Z,98238.05
2019-01-28T04:01:43.698Z,98234.37
2019-01-28T04:07:05.896Z,98237.59
2019-01-28T04:12:08.618Z,98069.28
2019-01-28T04:17:30.800Z,98217.13
2019-01-28T04:22:33.476Z,98111.55
2019-01-28T04:27:55.656Z,98221.80
2019-01-28T04:33:17.858Z,98222.82
2019-01-28T04:38:40.025Z,98202.72
2019-01-28T04:44:28.995Z,98206.77
2019-01-28T04:49:51.161Z,98224.73
2019-01-28T04:55:13.613Z,98215.79
2019-01-28T05:00:22.394Z,98234.15
2019-01-28T05:05:25.091Z,98202.45
2019-01-28T05:10:27.800Z,98199.94
2019-01-28T05:15:50.037Z,98203.47
2019-01-28T05:21:12.219Z,97828.39
2019-01-28T05:26:14.917Z,98222.77
2019-01-28T05:31:37.106Z,98195.77
2019-01-28T05:36:59.297Z,98199.23
2019-01-28T05:42:21.481Z,98175.73
2019-01-28T05:47:43.662Z,98008.90
2019-01-28T05:52:47.705Z,98203.98
2019-01-28T05:58:09.878Z,98187.34
2019-01-28T06:03:32.071Z,98185.73
2019-01-28T06:08:54.268Z,98064.98
2019-01-28T06:13:56.945Z,98196.20
2019-01-28T06:18:59.643Z,98205.89
2019-01-28T06:24:21.831Z,98202.73
2019-01-28T06:29:24.491Z,98224.47
2019-01-28T06:40:10.984Z,98205.45
2019-01-28T06:45:33.169Z,98201.78
2019-01-28T06:50:55.342Z,97908.70
2019-01-28T06:56:17.521Z,98208.33
2019-01-28T07:01:20.200Z,98229.70
2019-01-28T07:06:22.862Z,98213.17
2019-01-28T07:11:38.587Z,98217.66
2019-01-28T07:17:01.300Z,98113.55
2019-01-28T07:22:23.540Z,98252.68
2019-01-28T07:27:45.759Z,98245.17
2019-01-28T07:33:07.918Z,98243.52
2019-01-28T07:38:30.085Z,98250.11
2019-01-28T07:43:52.677Z,98256.85
2019-01-28T07:48:55.339Z,98285.28
2019-01-28T07:54:17.522Z,98264.83
2019-01-28T07:59:39.705Z,98272.95
2019-01-28T08:05:01.984Z,98273.34
2019-01-28T08:10:17.596Z,98310.89
2019-01-28T08:15:39.783Z,98280.38
2019-01-28T08:21:01.967Z,98288.10
2019-01-28T08:26:24.147Z,98288.28
2019-01-28T08:31:46.315Z,98292.45
2019-01-28T08:37:08.485Z,98305.83
2019-01-28T08:42:30.664Z,98053.66
2019-01-28T08:47:52.863Z,98153.90
2019-01-28T08:53:15.037Z,98055.26
2019-01-28T08:58:37.225Z,98312.67
2019-01-28T09:03:39.906Z,98316.45
2019-01-28T09:09:23.510Z,98319.28
2019-01-28T09:14:45.688Z,98328.61
2019-01-28T09:20:11.355Z,98330.88
2019-01-28T09:25:33.537Z,98358.50
2019-01-28T09:30:55.824Z,98374.59
2019-01-28T09:36:18.008Z,98354.01
2019-01-28T09:41:40.189Z,98357.81
2019-01-28T09:47:02.385Z,98362.79
2019-01-28T09:52:06.381Z,98126.96
2019-01-28T09:57:09.066Z,98378.73
2019-01-28T10:02:11.746Z,98385.55
2019-01-28T10:07:33.922Z,98400.03
2019-01-28T10:12:49.701Z,98072.75
2019-01-28T10:18:11.973Z,98433.22
2019-01-28T10:23:34.143Z,98036.52
2019-01-28T10:28:36.826Z,98433.59
2019-01-28T10:33:59.053Z,98418.71
2019-01-28T10:39:21.232Z,98037.33
2019-01-28T10:44:23.897Z,98449.56
2019-01-28T10:49:46.067Z,98423.17
2019-01-28T10:55:08.540Z,98459.70
2019-01-28T11:00:50.458Z,97922.08
2019-01-28T11:06:12.618Z,98184.89
2019-01-28T11:11:28.368Z,98436.63
2019-01-28T11:16:50.550Z,98443.41
2019-01-28T11:22:12.744Z,98446.30
2019-01-28T11:27:35.081Z,98178.30
2019-01-28T11:32:57.435Z,98481.69
2019-01-28T11:38:20.645Z,98494.99
2019-01-28T11:43:42.920Z,98493.73
2019-01-28T11:49:05.911Z,98456.23
2019-01-28T11:54:29.228Z,98350.39
2019-01-28T11:59:51.419Z,98495.57
2019-01-28T12:05:13.692Z,98495.66
2019-01-28T12:10:16.396Z,98505.63
2019-01-28T12:15:38.567Z,98522.91
2019-01-28T12:21:00.765Z,98553.59
2019-01-28T12:26:22.932Z,98533.39
2019-01-28T12:31:45.299Z,98564.10
2019-01-28T12:37:07.469Z,98547.06
2019-01-28T12:42:10.136Z,98320.75
2019-01-28T12:47:12.799Z,98583.39
2019-01-28T12:52:15.497Z,98567.73
2019-01-28T12:57:37.641Z,98607.91
2019-01-28T13:02:59.814Z,98609.81
2019-01-28T13:08:21.988Z,98620.81
2019-01-28T13:13:41.182Z,98623.23
2019-01-28T13:19:01.088Z,98635.68
2019-01-28T13:24:23.318Z,98649.20
2019-01-28T13:29:45.487Z,98651.61
2019-01-28T13:34:48.160Z,98664.42
2019-01-28T13:40:10.658Z,98672.66
2019-01-28T13:45:56.216Z,98675.64
2019-01-28T13:51:18.381Z,98681.45
2019-01-28T13:56:40.538Z,98698.95
2019-01-28T14:02:02.916Z,98693.58
2019-01-28T14:07:25.096Z,98737.79
2019-01-28T14:12:40.107Z,98721.20
2019-01-28T14:17:42.920Z,98733.73
2019-01-28T14:22:45.602Z,98738.84
2019-01-28T14:28:09.152Z,98751.24
2019-01-28T14:33:31.351Z,98756.91
2019-01-28T14:38:53.665Z,98796.66
2019-01-28T14:44:15.838Z,98781.66
2019-01-28T14:49:38.025Z,98784.68
2019-01-28T14:55:00.589Z,98789.63
2019-01-28T15:00:05.123Z,98800.41
2019-01-28T15:05:09.316Z,98804.55
2019-01-28T15:10:24.836Z,98808.70
2019-01-28T15:15:46.999Z,98822.23
2019-01-28T15:21:09.176Z,98853.57
2019-01-28T15:26:31.370Z,98840.95
2019-01-28T15:31:34.113Z,98861.80
2019-01-28T15:36:36.819Z,98875.18
2019-01-28T15:41:58.986Z,98893.39
2019-01-28T15:47:21.186Z,98911.65
2019-01-28T15:52:43.378Z,98643.08
2019-01-28T15:58:06.344Z,98977.16
2019-01-28T16:03:28.735Z,98972.86
2019-01-28T16:08:50.907Z,98992.07
2019-01-28T16:14:06.053Z,98746.41
2019-01-28T16:19:28.215Z,99004.05
2019-01-28T16:24:50.395Z,98706.25
2019-01-28T16:30:15.615Z,99076.31
2019-01-28T16:35:37.791Z,98580.12
2019-01-28T16:40:59.939Z,99062.33
2019-01-28T16:46:22.112Z,99081.24
2019-01-28T16:51:44.323Z,99099.54
2019-01-28T16:57:07.003Z,98849.91
2019-01-28T17:02:29.174Z,98795.66
2019-01-28T17:07:31.982Z,99147.25
2019-01-28T17:12:46.846Z,99165.53
2019-01-28T17:18:09.021Z,99174.03
2019-01-28T17:23:31.273Z,99191.30
2019-01-28T17:28:53.461Z,99230.27
2019-01-28T17:34:15.642Z,99215.45
2019-01-28T17:39:37.807Z,99122.91
2019-01-28T17:44:59.984Z,99266.79
2019-01-28T17:50:24.562Z,99251.76
2019-01-28T17:55:46.573Z,99269.91
2019-01-28T18:01:09.078Z,99268.52
2019-01-28T18:06:31.373Z,99042.45
2019-01-28T18:11:46.839Z,99288.01
2019-01-28T18:17:08.991Z,99297.08
2019-01-28T18:22:11.696Z,99318.45
2019-01-28T18:27:33.869Z,99316.72
2019-01-28T18:32:36.597Z,99322.00
2019-01-28T18:37:39.269Z,99333.06
2019-01-28T18:43:01.443Z,99351.47
2019-01-28T18:48:06.519Z,99354.58
2019-01-28T18:53:09.183Z,99369.63
2019-01-28T18:58:31.370Z,99373.84
2019-01-28T19:03:53.543Z,99325.11
2019-01-28T19:09:15.829Z,99423.64
2019-01-28T19:14:50.255Z,99421.95
2019-01-28T19:20:52.033Z,99465.88
2019-01-28T19:26:14.350Z,99443.38
2019-01-28T19:31:17.044Z,99477.67
2019-01-28T19:36:19.886Z,99475.19
2019-01-28T19:41:23.223Z,99498.20
2019-01-28T19:46:26.212Z,99504.06
2019-01-28T19:51:48.418Z,99502.38
2019-01-28T19:56:51.202Z,99062.00
2019-01-28T20:01:53.919Z,99517.06
2019-01-28T20:07:16.318Z,99510.55
2019-01-28T20:12:32.144Z,99531.94
2019-01-28T20:17:54.389Z,99537.36
2019-01-28T20:23:16.606Z,99544.64
2019-01-28T20:28:38.992Z,99553.89
2019-01-28T20:34:01.227Z,99575.53
2019-01-28T20:39:23.431Z,99197.39
2019-01-28T20:44:26.328Z,99573.98
2019-01-28T20:49:48.543Z,99573.89
2019-01-28T20:54:51.288Z,99583.28
2019-01-28T20:59:53.985Z,99594.73
2019-01-28T21:04:56.644Z,99601.80
2019-01-28T21:10:12.246Z,99613.47
2019-01-28T21:15:34.608Z,99643.69
2019-01-28T21:20:56.806Z,99656.62
2019-01-28T21:26:18.988Z,99537.27
2019-01-28T21:31:41.164Z,99671.17
2019-01-28T21:37:22.997Z,99654.80
2019-01-28T21:42:45.172Z,99668.34
2019-01-28T21:48:07.464Z,99382.03
2019-01-28T21:53:10.144Z,99670.38
2019-01-28T21:58:32.327Z,99678.06
2019-01-28T22:03:54.525Z,99293.38
2019-01-28T22:09:16.729Z,99688.76
2019-01-28T22:14:38.919Z,99685.45
2019-01-28T22:19:41.610Z,99714.13
2019-01-28T22:25:05.322Z,99702.41
2019-01-28T22:30:27.504Z,99703.08
2019-01-28T22:35:49.680Z,99733.80
2019-01-28T22:41:11.863Z,99749.94
2019-01-28T22:52:08.001Z,99767.00
2019-01-28T22:57:30.807Z,99629.29
2019-01-28T23:02:52.986Z,99765.14
2019-01-28T23:07:55.825Z,99742.17
2019-01-28T23:12:58.490Z,99753.48
2019-01-28T23:18:20.679Z,99759.98
2019-01-28T23:23:42.853Z,99454.27
2019-01-28T23:29:05.020Z,99764.78
2019-01-28T23:34:07.691Z,99608.55
2019-01-28T23:39:29.873Z,99767.80
2019-01-28T23:44:52.049Z,99778.97
2019-01-28T23:50:14.331Z,99789.17
2019-01-28T23:55:36.528Z,99805.16
